Time;durP1;ratioP1;P1;durP2;ratioP2;P2;SDS_P1;SDS_P2;PMS_P1;PMS_P2;Temp;Humidity;BMP_temperature;BMP_pressure;BME280_temperature;BME280_humidity;BME280_pressure;Samples;Min_cycle;Max_cycle;Signal;HPM_P1;HPM_P2
2022/12/14 00:00:32;;;;;;;9.55;5.93;;;;;;;-2.74;76.54;98252.53;4916263;29;20050;-66
2022/12/14 00:02:56;;;;;;;8.15;4.18;;;;;;;-2.69;76.21;98255.81;4915631;28;20043;-68
2022/12/14 00:05:21;;;;;;;11.27;7.65;;;;;;;-2.85;76.46;98249.53;4941077;28;20137;-66
2022/12/14 00:07:46;;;;;;;7.80;4.88;;;;;;;-2.80;76.54;98252.78;4977815;28;20057;-69
2022/12/14 00:10:11;;;;;;;9.45;5.80;;;;;;;-2.91;77.19;98249.75;4971547;28;20567;-68
2022/12/14 00:12:38;;;;;;;11.90;6.75;;;;;;;-2.84;77.29;98245.16;4970689;28;20080;-69
2022/12/14 00:15:03;;;;;;;8.65;5.45;;;;;;;-2.85;77.13;98238.25;4975017;28;20801;-69
2022/12/14 00:17:28;;;;;;;7.15;4.65;;;;;;;-2.85;77.00;98236.47;4986119;28;20108;-69
2022/12/14 00:19:52;;;;;;;8.50;5.65;;;;;;;-3.01;77.35;98233.63;4977305;28;20053;-69
2022/12/14 00:22:17;;;;;;;4.70;3.10;;;;;;;-2.84;77.47;98238.19;4995323;28;20088;-63
2022/12/14 00:24:42;;;;;;;11.93;5.85;;;;;;;-2.85;76.41;98223.44;4960614;28;20408;-63
2022/12/14 00:27:06;;;;;;;10.77;7.00;;;;;;;-2.97;76.43;98226.53;4994639;28;20034;-63
2022/12/14 00:29:31;;;;;;;11.93;6.40;;;;;;;-3.10;76.46;98215.75;4988446;28;20116;-62
2022/12/14 00:31:55;;;;;;;9.70;5.93;;;;;;;-3.05;76.83;98220.78;4957530;28;20056;-63
2022/12/14 00:34:20;;;;;;;10.85;5.47;;;;;;;-3.07;77.04;98226.06;4956330;28;20117;-70
2022/12/14 00:36:45;;;;;;;13.35;6.72;;;;;;;-3.07;76.85;98214.78;4988101;28;20044;-71
2022/12/14 00:39:09;;;;;;;8.02;4.93;;;;;;;-3.17;76.95;98227.34;4977686;28;20045;-71
2022/12/14 00:41:34;;;;;;;12.57;7.25;;;;;;;-3.22;76.66;98217.97;4959277;28;20105;-72
2022/12/14 00:43:59;;;;;;;12.70;6.90;;;;;;;-3.42;77.35;98223.97;4995187;28;20053;-71
2022/12/14 00:46:24;;;;;;;11.88;5.80;;;;;;;-3.33;77.40;98214.03;4995733;28;20049;-71
2022/12/14 00:48:48;;;;;;;11.15;6.63;;;;;;;-3.46;77.58;98210.19;4958246;28;20108;-72
2022/12/14 00:51:13;;;;;;;9.73;5.43;;;;;;;-3.47;78.02;98210.25;4993648;28;20148;-71
2022/12/14 00:53:38;;;;;;;8.68;4.72;;;;;;;-3.42;78.40;98221.38;4977317;28;20045;-71
2022/12/14 00:56:06;;;;;;;8.55;5.07;;;;;;;-3.04;77.46;98209.44;4977226;28;20127;-71
2022/12/14 00:58:31;;;;;;;12.30;6.18;;;;;;;-3.13;76.84;98202.81;4992989;28;20164;-70
2022/12/14 01:01:04;;;;;;;12.65;7.43;;;;;;;-3.27;76.64;98196.47;4994915;28;20116;-73
2022/12/14 01:03:29;;;;;;;17.08;5.65;;;;;;;-3.22;76.21;98192.78;4995240;28;20043;-71
2022/12/14 01:05:54;;;;;;;13.02;7.13;;;;;;;-3.34;76.34;98182.81;4977795;28;20070;-70
2022/12/14 01:08:18;;;;;;;6.40;4.97;;;;;;;-3.34;76.52;98168.03;4956250;28;20077;-73
2022/12/14 01:10:43;;;;;;;13.02;6.72;;;;;;;-3.39;75.81;98167.38;4991119;28;20048;-74
2022/12/14 01:13:10;;;;;;;10.10;5.85;;;;;;;-3.56;76.82;98161.97;4966249;28;20248;-72
2022/12/14 01:15:34;;;;;;;11.15;6.70;;;;;;;-3.60;77.56;98159.53;4983381;28;20472;-72
2022/12/14 01:17:59;;;;;;;11.07;5.93;;;;;;;-3.39;76.74;98164.78;4977634;28;20456;-73
2022/12/14 01:20:24;;;;;;;8.55;5.47;;;;;;;-3.52;77.00;98166.16;4978060;28;20444;-69
2022/12/14 01:22:54;;;;;;;7.03;4.22;;;;;;;-3.57;77.36;98172.44;4973464;28;20025;-70
2022/12/14 01:25:18;;;;;;;6.80;4.10;;;;;;;-3.28;76.20;98161.75;4957430;28;20551;-71
2022/12/14 01:27:43;;;;;;;11.77;6.22;;;;;;;-3.53;76.14;98148.84;4974808;28;20488;-70
2022/12/14 01:30:08;;;;;;;4.00;2.92;;;;;;;-3.48;76.77;98148.63;4975230;28;20496;-70
2022/12/14 01:32:33;;;;;;;13.85;6.85;;;;;;;-3.57;76.74;98149.00;4975928;28;20038;-70
2022/12/14 01:34:58;;;;;;;14.23;6.50;;;;;;;-3.45;75.86;98143.31;4981876;28;20049;-64
2022/12/14 01:37:22;;;;;;;9.13;5.68;;;;;;;-3.56;75.47;98141.13;4962196;28;20037;-64
2022/12/14 01:39:47;;;;;;;10.48;7.00;;;;;;;-3.61;75.90;98153.47;4979707;28;20050;-63
2022/12/14 01:42:13;;;;;;;9.57;6.00;;;;;;;-3.66;75.98;98158.03;4979531;28;20930;-63
2022/12/14 01:44:38;;;;;;;8.95;5.15;;;;;;;-3.72;76.48;98155.63;4963271;28;21453;-65
2022/12/14 01:47:28;;;;;;;5.88;4.40;;;;;;;-3.37;76.02;98154.28;4977867;28;20481;-65
2022/12/14 01:50:07;;;;;;;10.95;6.40;;;;;;;-3.62;76.08;98151.81;4980739;28;20042;-72
2022/12/14 01:52:46;;;;;;;13.88;7.15;;;;;;;-3.61;76.34;98142.25;4981400;28;20041;-75
2022/12/14 01:55:14;;;;;;;11.35;5.68;;;;;;;-3.83;76.64;98158.66;4994980;28;20069;-75
2022/12/14 01:57:42;;;;;;;10.20;6.60;;;;;;;-3.81;77.45;98132.56;4961866;28;20050;-74
2022/12/14 02:00:12;;;;;;;9.45;5.65;;;;;;;-3.80;77.63;98126.44;4980118;28;20049;-71
2022/12/14 02:02:42;;;;;;;11.65;6.38;;;;;;;-3.77;77.47;98113.31;4980976;28;20502;-74
2022/12/14 02:05:09;;;;;;;7.40;4.63;;;;;;;-3.56;77.56;98112.47;4998987;28;20491;-79
2022/12/14 02:07:34;;;;;;;12.15;7.25;;;;;;;-3.54;76.43;98126.31;4994141;28;20427;-73
2022/12/14 02:10:02;;;;;;;14.13;6.88;;;;;;;-3.58;76.26;98132.53;4931630;28;20038;-72
2022/12/14 02:12:35;;;;;;;10.27;5.75;;;;;;;-3.58;75.75;98116.03;4993916;28;20042;-73
2022/12/14 02:15:01;;;;;;;11.38;4.30;;;;;;;-3.62;75.83;98109.28;4964453;28;20060;-66
2022/12/14 02:17:29;;;;;;;19.92;7.47;;;;;;;-3.61;75.86;98108.38;4961172;28;20045;-65
2022/12/14 02:19:55;;;;;;;8.52;4.72;;;;;;;-3.58;75.05;98105.63;4957744;28;20096;-66
2022/12/14 02:22:47;;;;;;;5.20;3.28;;;;;;;-3.57;75.58;98102.13;4966968;28;20117;-64
2022/12/14 02:25:31;;;;;;;5.20;3.13;;;;;;;-3.50;74.73;98107.03;4941046;28;20424;-63
2022/12/14 02:28:16;;;;;;;11.02;5.85;;;;;;;-3.67;74.49;98117.25;4959122;28;20046;-63
2022/12/14 02:30:47;;;;;;;7.93;5.05;;;;;;;-3.44;74.35;98111.16;4885558;29;20054;-72
2022/12/14 02:33:27;;;;;;;9.40;5.45;;;;;;;-3.62;74.13;98099.72;4918228;29;20514;-77
2022/12/14 02:36:00;;;;;;;13.15;6.15;;;;;;;-3.80;74.29;98103.03;4902631;29;20438;-76
2022/12/14 02:38:44;;;;;;;10.30;5.23;;;;;;;-3.51;74.69;98120.97;4902438;29;20410;-79
2022/12/14 02:41:43;;;;;;;10.43;6.10;;;;;;;-3.56;73.35;98103.81;4924283;28;20086;-76
2022/12/14 02:44:26;;;;;;;13.02;7.25;;;;;;;-3.73;73.57;98107.94;4885719;29;20047;-71
2022/12/14 02:47:32;;;;;;;11.88;6.78;;;;;;;-3.88;73.85;98115.50;4901428;29;20051;-72
2022/12/14 02:49:59;;;;;;;;;;;;;;;-3.66;74.20;98126.78;4861909;29;20059;-72
2022/12/14 02:52:27;;;;;;;6.20;3.65;;;;;;;-3.70;73.09;98102.59;4863385;29;20373;-76
2022/12/14 02:55:04;;;;;;;5.88;4.10;;;;;;;-3.78;74.30;98096.84;4850348;29;20546;-76
2022/12/14 02:57:52;;;;;;;12.13;5.50;;;;;;;-3.83;74.34;98077.09;4882397;29;20538;-76
2022/12/14 03:00:18;;;;;;;9.75;6.30;;;;;;;-4.03;74.72;98089.13;4864460;29;20043;-74
2022/12/14 03:02:44;;;;;;;8.88;3.90;;;;;;;-3.92;75.20;98090.47;4845307;29;20952;-71
2022/12/14 03:05:09;;;;;;;10.88;5.60;;;;;;;-4.16;75.45;98087.03;4850970;29;20040;-78
2022/12/14 03:07:41;;;;;;;3.72;3.03;;;;;;;-3.93;76.23;98073.16;4900697;29;20057;-72
2022/12/14 03:10:05;;;;;;;9.38;5.30;;;;;;;-3.91;75.10;98067.00;4902418;29;20047;-71
2022/12/14 03:12:31;;;;;;;11.85;6.68;;;;;;;-4.11;75.89;98065.16;4898675;29;20039;-71
2022/12/14 03:15:05;;;;;;;9.27;4.63;;;;;;;-3.89;75.94;98059.97;4899851;29;20114;-71
2022/12/14 03:17:33;;;;;;;7.68;4.57;;;;;;;-3.99;75.87;98055.19;4916986;29;20481;-70
2022/12/14 03:20:04;;;;;;;10.40;5.60;;;;;;;-3.93;75.72;98058.38;4929366;28;20054;-70
2022/12/14 03:22:38;;;;;;;14.93;6.68;;;;;;;-4.13;76.35;98066.97;4973495;28;20034;-70
2022/12/14 03:25:09;;;;;;;7.55;3.83;;;;;;;-3.91;76.62;98068.75;4960902;28;20069;-70
2022/12/14 03:27:42;;;;;;;10.18;6.03;;;;;;;-3.93;76.40;98053.19;4978522;28;20138;-69
2022/12/14 03:30:15;;;;;;;11.13;5.78;;;;;;;-3.96;77.10;98052.47;4959654;28;20042;-68
2022/12/14 03:32:54;;;;;;;8.82;3.35;;;;;;;-3.82;76.80;98047.56;4930954;28;20152;-69
2022/12/14 03:35:30;;;;;;;8.88;4.90;;;;;;;-3.81;76.87;98046.66;4962485;28;20038;-68
2022/12/14 03:38:18;;;;;;;11.20;6.50;;;;;;;-3.87;76.24;98049.50;4945683;28;20193;-68
2022/12/14 03:41:15;;;;;;;14.55;6.55;;;;;;;-3.95;76.11;98034.16;4939904;28;20050;-68
2022/12/14 03:43:50;;;;;;;13.50;4.90;;;;;;;-3.97;76.73;98041.22;4878012;29;20051;-69
2022/12/14 03:46:35;;;;;;;11.32;6.97;;;;;;;-4.07;77.32;98035.53;4878717;29;20036;-70
2022/12/14 03:49:51;;;;;;;12.35;6.47;;;;;;;-3.98;77.06;98031.72;4862691;29;20839;-69
2022/12/14 03:52:15;;;;;;;8.65;3.65;;;;;;;-3.93;77.42;98024.53;4822733;29;20064;-69
2022/12/14 03:54:53;;;;;;;13.63;5.95;;;;;;;-3.73;77.03;98023.78;4806322;29;20045;-69
2022/12/14 03:57:32;;;;;;;14.00;6.90;;;;;;;-3.93;76.39;98028.91;4823088;29;20046;-69
2022/12/14 04:00:05;;;;;;;5.57;4.07;;;;;;;-3.84;76.49;98033.78;4819858;29;20092;-69
2022/12/14 04:03:21;;;;;;;15.63;7.53;;;;;;;-3.81;75.81;98052.69;4820132;29;20541;-69
2022/12/14 04:05:50;;;;;;;11.02;6.90;;;;;;;-3.76;74.45;98042.97;4819535;29;20053;-72
2022/12/14 04:08:33;;;;;;;13.95;7.03;;;;;;;-3.94;75.27;98054.09;4838569;29;20549;-69
2022/12/14 04:19:36;;;;;;;13.75;7.20;;;;;;;-4.01;74.60;98039.63;4844454;29;20540;-69
2022/12/14 04:22:13;;;;;;;15.30;6.72;;;;;;;-3.98;74.92;98036.06;4870872;29;20059;-70
2022/12/14 04:27:37;;;;;;;13.52;7.20;;;;;;;-4.11;75.03;98023.53;4934629;28;20054;-69
2022/12/14 04:30:04;;;;;;;16.20;7.32;;;;;;;-3.95;75.06;98035.94;4958450;28;20382;-68
2022/12/14 04:32:37;;;;;;;15.82;7.13;;;;;;;-3.99;75.22;98021.34;4959256;28;20045;-73
2022/12/14 04:35:15;;;;;;;11.40;6.53;;;;;;;-4.05;75.40;98036.28;4976766;28;20527;-72
2022/12/14 04:37:46;;;;;;;12.32;6.47;;;;;;;-4.14;75.54;98018.44;4975355;28;20041;-73
2022/12/14 04:40:17;;;;;;;12.90;7.60;;;;;;;-4.14;76.06;98023.63;4962110;28;20041;-72
2022/12/14 04:42:55;;;;;;;13.85;6.90;;;;;;;-3.99;76.18;98026.56;4963648;28;20102;-75
2022/12/14 04:45:28;;;;;;;12.43;7.03;;;;;;;-3.87;75.58;98028.69;4961661;28;20097;-70
2022/12/14 04:48:25;;;;;;;15.82;7.68;;;;;;;-3.87;75.75;98028.69;4974773;28;20073;-69
2022/12/14 04:51:07;;;;;;;12.52;6.50;;;;;;;-3.86;75.63;98032.97;4953201;28;20520;-69
2022/12/14 04:53:34;;;;;;;14.93;7.38;;;;;;;-4.07;75.87;98039.88;4977439;28;20063;-69
2022/12/14 04:56:21;;;;;;;13.05;7.20;;;;;;;-4.00;76.21;98035.25;4960802;28;20045;-69
2022/12/14 04:58:46;;;;;;;13.77;6.95;;;;;;;-3.88;75.88;98034.78;4959986;28;20046;-68
2022/12/14 05:01:43;;;;;;;16.35;7.78;;;;;;;-3.70;75.41;98041.84;4977192;28;20042;-69
2022/12/14 05:04:55;;;;;;;21.92;8.43;;;;;;;-3.95;75.72;98035.94;4954759;28;20120;-69
2022/12/14 05:07:35;;;;;;;18.42;8.27;;;;;;;-3.98;75.93;98029.09;4991396;28;20064;-68
2022/12/14 05:10:14;;;;;;;14.13;6.40;;;;;;;-3.79;75.50;98030.06;4966075;28;20041;-68
2022/12/14 05:12:56;;;;;;;12.85;7.68;;;;;;;-3.82;75.55;98030.19;4999928;28;20037;-67
2022/12/14 05:15:28;;;;;;;17.05;9.23;;;;;;;-3.93;75.48;98021.94;4968848;28;20041;-66
2022/12/14 05:17:54;;;;;;;12.95;7.80;;;;;;;-4.00;75.40;98030.06;4977700;28;20424;-68
2022/12/14 05:20:21;;;;;;;14.40;7.38;;;;;;;-3.93;76.08;98031.50;4993265;28;20345;-72
2022/12/14 05:22:46;;;;;;;17.20;9.38;;;;;;;-4.05;75.71;98020.66;5000940;28;20439;-69
2022/12/14 05:25:11;;;;;;;14.55;8.15;;;;;;;-4.00;76.17;98014.44;4973153;28;20037;-68
2022/12/14 05:27:35;;;;;;;15.48;8.07;;;;;;;-4.11;76.60;98059.94;4976411;28;20080;-71
2022/12/14 05:30:00;;;;;;;12.10;7.40;;;;;;;-4.02;76.40;98032.72;4998952;28;20080;-71
2022/12/14 05:32:27;;;;;;;16.05;8.93;;;;;;;-4.03;76.68;98031.03;4994296;28;20042;-70
2022/12/14 05:34:53;;;;;;;16.65;9.00;;;;;;;-3.98;76.54;98023.03;4978488;28;20240;-79
2022/12/14 05:37:18;;;;;;;14.98;9.05;;;;;;;-3.91;76.39;98024.50;4980209;28;20034;-80
2022/12/14 05:39:43;;;;;;;15.65;8.25;;;;;;;-3.67;75.83;98033.94;4993180;28;20068;-79
2022/12/14 05:42:07;;;;;;;20.25;9.10;;;;;;;-3.79;75.33;98024.00;4979059;28;20092;-79
2022/12/14 05:44:32;;;;;;;16.33;9.68;;;;;;;-3.92;75.90;98020.19;4989565;28;20041;-77
2022/12/14 05:46:56;;;;;;;18.95;9.00;;;;;;;-3.92;76.18;98030.59;4966285;28;20044;-79
2022/12/14 05:49:21;;;;;;;15.73;7.93;;;;;;;-3.71;75.54;98021.94;4999013;28;20045;-78
2022/12/14 05:51:47;;;;;;;14.90;8.23;;;;;;;-3.87;75.72;98016.50;4957744;28;20124;-77
2022/12/14 05:54:12;;;;;;;20.73;9.15;;;;;;;-3.97;75.92;98028.19;4994431;28;20045;-77
2022/12/14 05:56:36;;;;;;;19.60;9.50;;;;;;;-3.85;76.26;98039.88;5000450;28;20045;-77
2022/12/14 05:59:01;;;;;;;15.75;8.50;;;;;;;-3.70;75.29;98026.25;4965860;28;20526;-68
2022/12/14 06:01:26;;;;;;;17.25;9.68;;;;;;;-3.83;75.41;98033.69;4964156;28;20606;-67
2022/12/14 06:03:51;;;;;;;17.27;8.57;;;;;;;-3.90;75.53;98027.03;4964572;28;20025;-68
2022/12/14 06:06:16;;;;;;;17.65;9.50;;;;;;;-3.89;76.00;98025.28;5002101;28;20072;-68
2022/12/14 06:08:43;;;;;;;17.02;9.45;;;;;;;-3.95;76.13;98038.56;4985599;28;20038;-68
2022/12/14 06:11:13;;;;;;;17.42;10.25;;;;;;;-3.93;76.27;98032.34;4982075;28;20124;-68
2022/12/14 06:13:40;;;;;;;18.45;9.00;;;;;;;-3.84;76.38;98031.16;4985054;28;20124;-72
2022/12/14 06:16:17;;;;;;;17.25;9.10;;;;;;;-3.84;76.25;98037.22;4974493;28;20049;-68
2022/12/14 06:18:55;;;;;;;17.23;8.48;;;;;;;-3.79;76.47;98032.66;4985358;28;20793;-68
2022/12/14 06:21:22;;;;;;;15.57;7.90;;;;;;;-3.77;76.32;98028.25;4977580;28;20036;-68
2022/12/14 06:23:47;;;;;;;13.63;8.77;;;;;;;-3.74;76.26;98040.31;5004272;28;20073;-69
2022/12/14 06:26:13;;;;;;;21.15;8.73;;;;;;;-3.70;76.03;98047.91;4989305;28;20041;-68
2022/12/14 06:28:38;;;;;;;14.38;8.38;;;;;;;-3.62;76.01;98039.81;4974229;28;20045;-67
2022/12/14 06:31:03;;;;;;;12.35;7.00;;;;;;;-3.54;75.71;98045.56;4991577;28;20041;-68
2022/12/14 06:33:28;;;;;;;18.20;10.65;;;;;;;-3.48;76.12;98054.88;4991941;28;20416;-69
2022/12/14 06:35:53;;;;;;;16.20;8.70;;;;;;;-3.52;75.93;98050.72;4980474;28;20664;-69
2022/12/14 06:38:17;;;;;;;16.95;8.98;;;;;;;-3.53;76.15;98062.88;4993858;28;20211;-71
2022/12/14 06:40:42;;;;;;;18.15;9.55;;;;;;;-3.49;75.95;98060.97;4989048;28;20403;-68
2022/12/14 06:43:07;;;;;;;14.57;8.80;;;;;;;-3.47;75.99;98057.41;4980234;28;20033;-68
2022/12/14 06:45:32;;;;;;;15.40;8.85;;;;;;;-3.48;75.93;98062.69;4976992;28;20033;-68
2022/12/14 06:48:00;;;;;;;16.83;9.13;;;;;;;-3.56;76.17;98062.16;4966539;28;20099;-69
2022/12/14 06:50:26;;;;;;;15.65;7.65;;;;;;;-3.53;75.83;98064.63;4964346;28;20052;-69
2022/12/14 06:52:51;;;;;;;20.55;9.55;;;;;;;-3.49;76.16;98054.00;4997121;28;20048;-76
2022/12/14 06:55:15;;;;;;;15.85;8.98;;;;;;;-3.42;76.22;98052.03;5002425;28;20041;-78
2022/12/14 06:57:40;;;;;;;16.52;8.75;;;;;;;-3.34;76.07;98056.00;4972461;28;20136;-78
2022/12/14 07:00:06;;;;;;;17.63;9.60;;;;;;;-3.30;75.98;98064.56;5009837;28;20045;-75
2022/12/14 07:02:30;;;;;;;17.13;9.30;;;;;;;-3.25;75.37;98070.41;5002524;28;20116;-79
2022/12/14 07:04:55;;;;;;;16.90;9.63;;;;;;;-3.19;75.64;98078.00;5001113;28;20092;-77
2022/12/14 07:07:20;;;;;;;16.52;9.43;;;;;;;-3.16;74.50;98084.84;4946275;28;20582;-76
2022/12/14 07:09:44;;;;;;;13.68;8.95;;;;;;;-3.11;74.42;98083.72;4978647;28;20495;-77
2022/12/14 07:12:09;;;;;;;15.30;9.50;;;;;;;-3.06;74.02;98079.19;4999360;28;20448;-76
2022/12/14 07:14:34;;;;;;;14.52;8.02;;;;;;;-3.00;74.16;98098.91;4999136;28;20418;-76
2022/12/14 07:16:58;;;;;;;14.43;8.73;;;;;;;-3.00;73.94;98091.09;4998616;28;20545;-76
2022/12/14 07:19:23;;;;;;;14.32;8.90;;;;;;;-3.03;73.68;98089.44;4981534;28;20037;-79
2022/12/14 07:21:47;;;;;;;11.95;7.95;;;;;;;-3.14;71.86;98096.03;5011333;28;20022;-75
2022/12/14 07:24:12;;;;;;;18.95;9.00;;;;;;;-3.25;72.29;98100.81;5005373;28;20103;-79
2022/12/14 07:26:37;;;;;;;17.95;10.13;;;;;;;-3.24;71.92;98099.91;4980320;28;20108;-78
2022/12/14 07:29:02;;;;;;;17.88;9.77;;;;;;;-3.15;72.81;98102.13;4981237;28;20045;-79
2022/12/14 07:31:27;;;;;;;15.15;7.90;;;;;;;-3.14;73.04;98099.47;4966166;28;20080;-79
2022/12/14 07:33:54;;;;;;;12.60;8.00;;;;;;;-3.14;73.05;98107.28;4977802;28;20068;-78
2022/12/14 07:36:19;;;;;;;17.65;8.77;;;;;;;-3.12;73.11;98107.22;4978219;28;20038;-78
2022/12/14 07:38:46;;;;;;;14.23;7.65;;;;;;;-3.05;73.71;98116.53;4962672;28;20048;-79
2022/12/14 07:41:14;;;;;;;13.90;8.20;;;;;;;-3.02;73.48;98121.59;4981808;28;20393;-79
2022/12/14 07:43:40;;;;;;;17.88;9.68;;;;;;;-3.12;72.17;98130.69;4981323;28;20127;-78
2022/12/14 07:46:11;;;;;;;17.77;9.23;;;;;;;-3.09;72.25;98130.56;4997533;28;20053;-78
2022/12/14 07:48:36;;;;;;;12.35;7.50;;;;;;;-3.08;72.63;98129.66;4967593;28;20053;-78
2022/12/14 07:51:04;;;;;;;14.13;8.70;;;;;;;-3.05;72.63;98132.16;4982015;28;20045;-80
2022/12/14 07:53:29;;;;;;;18.38;10.02;;;;;;;-3.02;73.83;98142.44;4979975;28;20037;-79
2022/12/14 07:55:53;;;;;;;17.00;9.45;;;;;;;-3.02;72.75;98134.63;4980832;28;20095;-78
2022/12/14 07:58:18;;;;;;;15.77;8.73;;;;;;;-3.01;73.13;98138.94;4979761;28;20052;-78
2022/12/14 08:00:43;;;;;;;17.27;9.20;;;;;;;-3.21;72.02;98139.75;4997953;28;20144;-80
2022/12/14 08:03:07;;;;;;;20.10;9.60;;;;;;;-3.17;72.47;98140.47;4994740;28;20447;-80
2022/12/14 08:05:33;;;;;;;17.50;9.70;;;;;;;-3.14;72.79;98153.38;4971021;28;20140;-80
2022/12/14 08:07:57;;;;;;;16.67;9.52;;;;;;;-3.14;72.66;98153.38;4947915;28;20160;-77
2022/12/14 08:10:22;;;;;;;17.35;9.30;;;;;;;-3.11;72.31;98143.66;4997857;28;20096;-76
2022/12/14 08:12:49;;;;;;;20.45;10.43;;;;;;;-3.09;71.88;98144.47;5000352;28;20041;-77
2022/12/14 08:15:13;;;;;;;15.82;9.35;;;;;;;-3.07;71.41;98165.25;4998268;28;20045;-78
2022/12/14 08:17:38;;;;;;;23.48;9.32;;;;;;;-3.00;72.21;98158.88;4996662;28;20041;-76
2022/12/14 08:20:03;;;;;;;14.77;8.90;;;;;;;-2.96;72.21;98157.84;4977648;28;20043;-76
2022/12/14 08:22:28;;;;;;;16.92;8.85;;;;;;;-2.98;72.26;98164.88;4988368;28;20051;-75
2022/12/14 08:24:52;;;;;;;20.05;10.40;;;;;;;-2.90;72.47;98168.00;4997768;28;20053;-75
2022/12/14 08:27:17;;;;;;;23.77;12.38;;;;;;;-2.92;72.17;98165.47;4982143;28;20037;-75
2022/12/14 08:29:42;;;;;;;17.90;11.80;;;;;;;-2.92;71.78;98164.59;4968277;28;20045;-75
2022/12/14 08:32:06;;;;;;;22.95;11.98;;;;;;;-2.86;72.42;98174.81;4967402;28;20053;-76
2022/12/14 08:34:31;;;;;;;18.02;9.73;;;;;;;-2.80;71.97;98174.53;4972094;28;20045;-75
2022/12/14 08:36:55;;;;;;;23.98;10.35;;;;;;;-2.74;72.57;98179.53;4995521;28;20497;-77
2022/12/14 08:39:20;;;;;;;17.77;9.10;;;;;;;-2.75;71.69;98182.19;4981703;28;20052;-75
2022/12/14 08:41:45;;;;;;;18.65;9.93;;;;;;;-2.72;72.27;98180.31;4998350;28;20041;-74
2022/12/14 08:44:09;;;;;;;22.83;9.70;;;;;;;-2.68;72.77;98184.47;4981239;28;20496;-75
2022/12/14 08:46:36;;;;;;;20.73;9.88;;;;;;;-2.73;71.79;98186.44;4984763;28;20148;-78
2022/12/14 08:49:01;;;;;;;18.10;10.55;;;;;;;-2.70;71.67;98183.69;4985567;28;20052;-76
2022/12/14 08:51:26;;;;;;;19.85;11.05;;;;;;;-2.76;71.68;98201.34;5000828;28;20128;-75
2022/12/14 08:53:52;;;;;;;27.73;11.20;;;;;;;-2.88;71.82;98204.44;4996977;28;20077;-77
2022/12/14 08:56:19;;;;;;;21.42;12.02;;;;;;;-2.98;72.26;98209.19;4997609;28;20045;-77
2022/12/14 08:58:43;;;;;;;21.08;11.55;;;;;;;-3.11;72.98;98207.97;4970045;28;20052;-78
2022/12/14 09:01:14;;;;;;;17.15;10.75;;;;;;;-3.07;73.89;98215.63;4993723;28;20124;-76
2022/12/14 09:03:44;;;;;;;26.00;10.98;;;;;;;-2.96;73.83;98220.41;4979412;28;20068;-75
2022/12/14 09:06:11;;;;;;;17.50;9.85;;;;;;;-2.92;74.07;98230.66;4995460;28;20084;-75
2022/12/14 09:08:36;;;;;;;20.52;9.93;;;;;;;-3.06;73.73;98232.97;4969504;28;20446;-74
2022/12/14 09:11:02;;;;;;;15.75;9.60;;;;;;;-3.00;73.81;98234.47;4984503;28;20407;-76
2022/12/14 09:13:28;;;;;;;16.83;9.57;;;;;;;-2.96;73.85;98239.50;4996620;28;20459;-75
2022/12/14 09:16:01;;;;;;;19.58;9.93;;;;;;;-2.88;73.48;98240.97;4998698;28;20156;-76
2022/12/14 09:18:26;;;;;;;13.45;8.63;;;;;;;-2.77;73.89;98246.59;4998933;28;20037;-75
2022/12/14 09:20:54;;;;;;;17.92;8.98;;;;;;;-2.74;73.40;98249.94;4995566;28;20048;-74
2022/12/14 09:23:21;;;;;;;19.98;9.93;;;;;;;-2.85;72.70;98257.34;4996621;28;20041;-75
2022/12/14 09:25:46;;;;;;;18.00;9.77;;;;;;;-2.97;72.75;98260.44;5002262;28;20041;-73
2022/12/14 09:28:10;;;;;;;19.67;9.02;;;;;;;-2.88;73.17;98260.06;4994987;28;20060;-75
2022/12/14 09:30:35;;;;;;;18.00;9.43;;;;;;;-2.86;73.23;98270.44;4974731;28;20143;-75
2022/12/14 09:32:59;;;;;;;16.05;8.40;;;;;;;-2.80;73.37;98273.63;4970545;28;20041;-73
2022/12/14 09:35:24;;;;;;;16.70;9.40;;;;;;;-2.84;73.43;98272.09;4961796;28;20041;-75
2022/12/14 09:37:49;;;;;;;17.00;9.27;;;;;;;-2.73;72.92;98287.31;4951836;28;20404;-75
2022/12/14 09:40:15;;;;;;;17.63;10.43;;;;;;;-2.72;72.88;98289.00;4991949;28;20080;-74
2022/12/14 09:42:51;;;;;;;20.95;9.82;;;;;;;-2.68;72.14;98304.44;4963021;28;20041;-74
2022/12/14 09:45:16;;;;;;;16.65;8.88;;;;;;;-2.82;72.31;98311.13;4961653;28;20081;-76
2022/12/14 09:47:56;;;;;;;17.00;9.27;;;;;;;-2.88;72.53;98312.22;4978549;28;20077;-74
2022/12/14 09:50:22;;;;;;;17.77;9.93;;;;;;;-2.88;72.90;98327.00;4995988;28;20460;-74
2022/12/14 09:52:58;;;;;;;18.00;9.57;;;;;;;-2.78;73.18;98329.19;4962572;28;20534;-75
2022/12/14 09:55:28;;;;;;;14.13;8.77;;;;;;;-2.66;73.29;98331.31;5000610;28;20120;-75
2022/12/14 09:57:58;;;;;;;20.95;9.20;;;;;;;-2.64;73.10;98334.72;4999327;28;20037;-77
2022/12/14 10:00:23;;;;;;;19.08;9.43;;;;;;;-2.69;73.31;98344.47;5000882;28;20129;-76
2022/12/14 10:03:05;;;;;;;20.33;9.88;;;;;;;-2.58;73.26;98331.88;4999356;28;20504;-76
2022/12/14 10:05:44;;;;;;;19.35;10.80;;;;;;;-2.64;73.22;98346.94;5001308;28;20123;-75
2022/12/14 10:08:39;;;;;;;16.50;9.25;;;;;;;-2.46;73.79;98337.50;5001668;28;20113;-75
2022/12/14 10:11:30;;;;;;;18.73;9.65;;;;;;;-2.43;73.75;98340.84;5000641;28;20504;-78
2022/12/14 10:14:14;;;;;;;14.02;8.60;;;;;;;-2.31;73.42;98356.03;4944124;28;20058;-76
2022/12/14 10:16:58;;;;;;;21.67;10.55;;;;;;;-2.28;72.96;98358.53;4930517;28;20077;-77
2022/12/14 10:19:52;;;;;;;19.70;10.07;;;;;;;-2.27;72.92;98367.19;4953069;28;20042;-78
2022/12/14 10:22:24;;;;;;;14.27;8.55;;;;;;;-2.19;72.47;98378.16;4964523;28;20046;-77
2022/12/14 10:24:56;;;;;;;20.05;10.57;;;;;;;-2.17;72.54;98386.78;4943187;28;20489;-76
2022/12/14 10:27:24;;;;;;;21.92;11.48;;;;;;;-2.22;72.81;98394.78;4941921;28;20054;-76
2022/12/14 10:30:07;;;;;;;22.73;9.95;;;;;;;-2.17;72.75;98394.63;4943166;28;20042;-77
2022/12/14 10:32:37;;;;;;;16.95;9.85;;;;;;;-2.36;72.87;98401.47;4942893;28;20456;-77
2022/12/14 10:35:17;;;;;;;14.52;8.00;;;;;;;-2.27;73.32;98415.03;4981072;28;20038;-78
2022/12/14 10:37:50;;;;;;;11.43;7.00;;;;;;;-2.20;73.29;98410.41;4960786;28;20080;-77
2022/12/14 10:40:22;;;;;;;14.60;7.30;;;;;;;-2.16;73.03;98417.22;4958456;28;20052;-78
2022/12/14 10:43:14;;;;;;;13.13;6.38;;;;;;;-2.06;72.91;98428.97;4958351;28;20137;-78
2022/12/14 10:46:13;;;;;;;11.25;6.57;;;;;;;-2.02;72.47;98429.69;4961400;28;20045;-79
2022/12/14 10:48:45;;;;;;;9.00;5.55;;;;;;;-1.97;72.50;98433.84;4980681;28;20052;-77
2022/12/14 10:51:36;;;;;;;11.38;5.63;;;;;;;-2.08;72.45;98446.47;4977756;28;20516;-77
2022/12/14 10:54:25;;;;;;;13.80;5.32;;;;;;;-2.03;72.56;98449.72;4985304;28;20083;-78
2022/12/14 10:56:50;;;;;;;13.57;6.05;;;;;;;-2.21;72.63;98445.25;4987407;28;20046;-75
2022/12/14 10:59:24;;;;;;;9.20;5.80;;;;;;;-2.20;73.13;98471.28;4999546;28;20049;-74
2022/12/14 11:02:15;;;;;;;9.45;5.50;;;;;;;-2.03;73.60;98469.81;5011943;28;20037;-77
2022/12/14 11:04:46;;;;;;;9.75;5.05;;;;;;;-2.01;73.73;98479.25;5011119;28;20057;-74
2022/12/14 11:07:14;;;;;;;9.18;4.80;;;;;;;-2.03;73.78;98486.28;5006556;28;20136;-74
2022/12/14 11:09:39;;;;;;;6.90;4.10;;;;;;;-2.10;73.14;98494.44;4989789;28;20105;-72
2022/12/14 11:12:12;;;;;;;6.50;3.67;;;;;;;-2.12;73.51;98501.47;5011419;28;20048;-73
2022/12/14 11:14:40;;;;;;;10.90;4.15;;;;;;;-2.26;73.42;98505.44;5005673;28;20056;-74
2022/12/14 11:17:05;;;;;;;7.32;3.95;;;;;;;-2.30;73.39;98523.91;4985890;28;20052;-76
2022/12/14 11:19:29;;;;;;;5.28;3.20;;;;;;;-2.31;73.62;98530.03;5005017;28;20053;-75
2022/12/14 11:22:12;;;;;;;6.35;3.60;;;;;;;-2.32;73.38;98531.81;5011897;28;20037;-76
2022/12/14 11:24:45;;;;;;;8.52;3.40;;;;;;;-2.33;73.29;98548.38;5015177;28;20052;-76
2022/12/14 11:27:10;;;;;;;4.50;2.88;;;;;;;-2.38;72.27;98552.94;5017410;28;20063;-77
2022/12/14 11:29:43;;;;;;;4.05;2.97;;;;;;;-2.23;72.50;98560.16;4988838;28;20091;-76
2022/12/14 11:32:17;;;;;;;3.70;2.22;;;;;;;-2.27;71.75;98561.22;4994970;28;20045;-77
2022/12/14 11:34:42;;;;;;;3.00;2.53;;;;;;;-2.26;71.75;98575.13;5008844;28;20041;-69
2022/12/14 11:37:14;;;;;;;3.47;1.83;;;;;;;-2.25;71.80;98582.00;4997073;28;20072;-69
2022/12/14 11:39:41;;;;;;;3.38;2.25;;;;;;;-2.40;71.47;98593.88;5001301;28;20033;-71
2022/12/14 11:42:15;;;;;;;4.95;3.55;;;;;;;-2.45;71.77;98592.31;4970253;28;20029;-68
2022/12/14 11:44:41;;;;;;;6.10;3.80;;;;;;;-2.52;71.60;98601.28;4999780;28;20472;-71
2022/12/14 11:47:10;;;;;;;5.00;2.65;;;;;;;-2.35;72.50;98611.97;4962763;28;20041;-69
2022/12/14 11:49:44;;;;;;;6.60;3.45;;;;;;;-2.50;71.33;98620.38;4962931;28;20056;-70
2022/12/14 11:52:10;;;;;;;6.05;3.60;;;;;;;-2.44;71.90;98620.13;4963829;28;20069;-71